Overview Statistics Trail Chart Weather Telemetry Raw packets
 

This is the latest recevied weather packets stored in our database for station/object TB1YZC-13. If no packets are shown the sender has not sent any weather packets the latest 10 day(s).

<< 13 14 15 16 17 18 19 >>
Time Temp. Humidity Pressure Rain* Wind** Luminosity Snow
1788453771 22.78° C 81% 1016.3 hPa - - - -
1788453168 22.78° C 79% 1016.3 hPa - - - -
1788452565 23.33° C 76% 1016.2 hPa - - - -
1788451961 23.33° C 75% 1016.2 hPa - - - -
1788451358 23.33° C 75% 1016.2 hPa - - - -
1788450755 23.33° C 74% 1016.3 hPa - - - -
1788450151 23.89° C 73% 1016.3 hPa - - - -
1788449548 23.89° C 71% 1016.4 hPa - - - -
1788448945 24.44° C 66% 1016.3 hPa - - - -
1788448342 25° C 64% 1016.2 hPa - - - -
1788447739 25° C 64% 1016.2 hPa - - - -
1788447135 25° C 63% 1016.3 hPa - - - -
1788446533 25.56° C 61% 1016.1 hPa - - - -
1788445929 25.56° C 61% 1016.2 hPa - - - -
1788445326 26.11° C 53% 1016 hPa - - - -
1788444722 26.67° C 53% 1015.9 hPa - - - -
1788444119 27.78° C 51% 1015.9 hPa - - - -
1788443516 28.33° C 46% 1015.9 hPa - - - -
1788442913 27.78° C 48% 1016 hPa - - - -
1788442310 28.89° C 50% 1015.9 hPa - - - -
1788441706 28.33° C 53% 1016.1 hPa - - - -
1788441103 28.33° C 53% 1016.1 hPa - - - -
1788440500 27.78° C 53% 1016.2 hPa - - - -
1788439898 28.33° C 50% 1016.3 hPa - - - -
1788439294 28.33° C 54% 1016.2 hPa - - - -

* Rain since midnight (hover to see other rain measurements)
** Current wind speed in m/s (hover to see current wind gust speed)